sensor_id;sensor_type;location;lat;lon;timestamp;P1;durP1;ratioP1;P2;durP2;ratioP2
75169;SDS011;63749;49.186;9.222;2023-08-12T00:01:03;11.48;;;6.53;;
75169;SDS011;63749;49.186;9.222;2023-08-12T00:03:29;9.70;;;7.00;;
75169;SDS011;63749;49.186;9.222;2023-08-12T00:05:54;10.90;;;7.30;;
75169;SDS011;63749;49.186;9.222;2023-08-12T00:08:21;11.65;;;7.18;;
75169;SDS011;63749;49.186;9.222;2023-08-12T00:10:47;11.43;;;6.90;;
75169;SDS011;63749;49.186;9.222;2023-08-12T00:13:12;12.23;;;6.93;;
75169;SDS011;63749;49.186;9.222;2023-08-12T00:15:42;12.83;;;6.77;;
75169;SDS011;63749;49.186;9.222;2023-08-12T00:18:08;11.90;;;6.90;;
75169;SDS011;63749;49.186;9.222;2023-08-12T00:20:34;13.05;;;7.47;;
75169;SDS011;63749;49.186;9.222;2023-08-12T00:22:59;13.10;;;8.07;;
75169;SDS011;63749;49.186;9.222;2023-08-12T00:25:24;14.27;;;7.83;;
75169;SDS011;63749;49.186;9.222;2023-08-12T00:27:50;14.10;;;8.30;;
75169;SDS011;63749;49.186;9.222;2023-08-12T00:30:15;11.67;;;8.10;;
75169;SDS011;63749;49.186;9.222;2023-08-12T00:32:41;15.60;;;8.50;;
75169;SDS011;63749;49.186;9.222;2023-08-12T00:35:06;11.93;;;8.67;;
75169;SDS011;63749;49.186;9.222;2023-08-12T00:37:32;13.18;;;8.25;;
75169;SDS011;63749;49.186;9.222;2023-08-12T00:39:57;11.77;;;7.77;;
75169;SDS011;63749;49.186;9.222;2023-08-12T00:42:22;11.77;;;8.10;;
75169;SDS011;63749;49.186;9.222;2023-08-12T00:44:48;15.20;;;7.93;;
75169;SDS011;63749;49.186;9.222;2023-08-12T00:47:13;14.03;;;7.40;;
75169;SDS011;63749;49.186;9.222;2023-08-12T00:49:39;12.32;;;8.15;;
75169;SDS011;63749;49.186;9.222;2023-08-12T00:52:06;14.88;;;8.05;;
75169;SDS011;63749;49.186;9.222;2023-08-12T00:54:31;10.60;;;7.87;;
75169;SDS011;63749;49.186;9.222;2023-08-12T00:56:57;11.43;;;7.57;;
75169;SDS011;63749;49.186;9.222;2023-08-12T00:59:22;10.93;;;8.20;;
75169;SDS011;63749;49.186;9.222;2023-08-12T01:01:49;12.27;;;7.10;;
75169;SDS011;63749;49.186;9.222;2023-08-12T01:04:14;12.45;;;7.32;;
75169;SDS011;63749;49.186;9.222;2023-08-12T01:06:40;10.87;;;7.50;;
75169;SDS011;63749;49.186;9.222;2023-08-12T01:09:06;10.88;;;7.00;;
75169;SDS011;63749;49.186;9.222;2023-08-12T01:11:36;12.77;;;6.80;;
75169;SDS011;63749;49.186;9.222;2023-08-12T01:16:30;11.70;;;7.50;;
75169;SDS011;63749;49.186;9.222;2023-08-12T01:18:58;10.75;;;7.30;;
75169;SDS011;63749;49.186;9.222;2023-08-12T01:21:25;16.98;;;7.93;;
75169;SDS011;63749;49.186;9.222;2023-08-12T01:23:54;11.98;;;7.28;;
75169;SDS011;63749;49.186;9.222;2023-08-12T01:26:20;14.50;;;7.43;;
75169;SDS011;63749;49.186;9.222;2023-08-12T01:28:45;11.60;;;7.20;;
75169;SDS011;63749;49.186;9.222;2023-08-12T01:31:15;11.97;;;7.80;;
75169;SDS011;63749;49.186;9.222;2023-08-12T01:34:06;12.23;;;7.83;;
75169;SDS011;63749;49.186;9.222;2023-08-12T01:36:37;12.02;;;7.75;;
75169;SDS011;63749;49.186;9.222;2023-08-12T01:39:04;14.70;;;7.90;;
75169;SDS011;63749;49.186;9.222;2023-08-12T01:41:31;14.20;;;8.18;;
75169;SDS011;63749;49.186;9.222;2023-08-12T01:43:56;16.07;;;8.23;;
75169;SDS011;63749;49.186;9.222;2023-08-12T01:46:22;14.93;;;7.72;;
75169;SDS011;63749;49.186;9.222;2023-08-12T01:48:47;19.20;;;7.53;;
75169;SDS011;63749;49.186;9.222;2023-08-12T01:51:13;12.83;;;7.80;;
75169;SDS011;63749;49.186;9.222;2023-08-12T01:53:38;16.60;;;7.63;;
75169;SDS011;63749;49.186;9.222;2023-08-12T01:56:03;13.45;;;7.13;;
75169;SDS011;63749;49.186;9.222;2023-08-12T01:58:29;11.37;;;6.90;;
75169;SDS011;63749;49.186;9.222;2023-08-12T02:00:54;12.40;;;7.00;;
75169;SDS011;63749;49.186;9.222;2023-08-12T02:03:19;12.47;;;6.80;;
75169;SDS011;63749;49.186;9.222;2023-08-12T02:05:45;14.67;;;6.83;;
75169;SDS011;63749;49.186;9.222;2023-08-12T02:08:10;12.30;;;6.77;;
75169;SDS011;63749;49.186;9.222;2023-08-12T02:10:35;11.87;;;7.00;;
75169;SDS011;63749;49.186;9.222;2023-08-12T02:13:01;11.30;;;6.30;;
75169;SDS011;63749;49.186;9.222;2023-08-12T02:15:27;12.10;;;6.53;;
75169;SDS011;63749;49.186;9.222;2023-08-12T02:17:53;13.37;;;6.60;;
75169;SDS011;63749;49.186;9.222;2023-08-12T02:20:18;13.75;;;6.72;;
75169;SDS011;63749;49.186;9.222;2023-08-12T02:22:43;10.63;;;6.67;;
75169;SDS011;63749;49.186;9.222;2023-08-12T02:25:09;11.37;;;6.50;;
75169;SDS011;63749;49.186;9.222;2023-08-12T02:27:34;11.90;;;6.63;;
75169;SDS011;63749;49.186;9.222;2023-08-12T02:30:00;10.17;;;6.47;;
75169;SDS011;63749;49.186;9.222;2023-08-12T02:32:25;10.98;;;6.47;;
75169;SDS011;63749;49.186;9.222;2023-08-12T02:34:50;10.97;;;7.20;;
75169;SDS011;63749;49.186;9.222;2023-08-12T02:37:16;12.20;;;6.60;;
75169;SDS011;63749;49.186;9.222;2023-08-12T02:39:41;12.37;;;6.50;;
75169;SDS011;63749;49.186;9.222;2023-08-12T02:42:07;10.90;;;6.43;;
75169;SDS011;63749;49.186;9.222;2023-08-12T02:44:32;8.60;;;6.30;;
75169;SDS011;63749;49.186;9.222;2023-08-12T02:46:57;11.17;;;6.43;;
75169;SDS011;63749;49.186;9.222;2023-08-12T02:49:23;12.80;;;6.30;;
75169;SDS011;63749;49.186;9.222;2023-08-12T02:51:48;11.20;;;6.80;;
75169;SDS011;63749;49.186;9.222;2023-08-12T02:54:13;12.30;;;6.37;;
75169;SDS011;63749;49.186;9.222;2023-08-12T02:56:39;13.17;;;6.20;;
75169;SDS011;63749;49.186;9.222;2023-08-12T02:59:05;13.20;;;6.40;;
75169;SDS011;63749;49.186;9.222;2023-08-12T03:01:30;12.23;;;5.73;;
75169;SDS011;63749;49.186;9.222;2023-08-12T03:03:55;8.70;;;6.33;;
75169;SDS011;63749;49.186;9.222;2023-08-12T03:06:21;10.45;;;6.10;;
75169;SDS011;63749;49.186;9.222;2023-08-12T03:08:46;10.10;;;6.40;;
75169;SDS011;63749;49.186;9.222;2023-08-12T03:11:11;15.40;;;6.70;;
75169;SDS011;63749;49.186;9.222;2023-08-12T03:13:37;9.67;;;6.40;;
75169;SDS011;63749;49.186;9.222;2023-08-12T03:16:02;14.43;;;7.10;;
75169;SDS011;63749;49.186;9.222;2023-08-12T03:18:28;9.32;;;6.43;;
75169;SDS011;63749;49.186;9.222;2023-08-12T03:20:53;12.17;;;6.80;;
75169;SDS011;63749;49.186;9.222;2023-08-12T03:23:18;10.17;;;7.00;;
75169;SDS011;63749;49.186;9.222;2023-08-12T03:25:43;12.20;;;7.43;;
75169;SDS011;63749;49.186;9.222;2023-08-12T03:28:11;11.18;;;7.22;;
75169;SDS011;63749;49.186;9.222;2023-08-12T03:30:36;11.60;;;7.40;;
75169;SDS011;63749;49.186;9.222;2023-08-12T03:33:02;11.43;;;7.07;;
75169;SDS011;63749;49.186;9.222;2023-08-12T03:35:27;10.30;;;7.07;;
75169;SDS011;63749;49.186;9.222;2023-08-12T03:37:53;9.57;;;6.47;;
75169;SDS011;63749;49.186;9.222;2023-08-12T03:40:19;18.23;;;6.73;;
75169;SDS011;63749;49.186;9.222;2023-08-12T03:42:44;11.20;;;6.60;;
75169;SDS011;63749;49.186;9.222;2023-08-12T03:45:09;9.17;;;6.70;;
75169;SDS011;63749;49.186;9.222;2023-08-12T03:47:35;9.73;;;6.57;;
75169;SDS011;63749;49.186;9.222;2023-08-12T03:50:00;11.30;;;6.90;;
75169;SDS011;63749;49.186;9.222;2023-08-12T03:52:26;9.13;;;6.43;;
75169;SDS011;63749;49.186;9.222;2023-08-12T03:54:51;14.93;;;6.80;;
75169;SDS011;63749;49.186;9.222;2023-08-12T03:57:18;9.88;;;6.20;;
75169;SDS011;63749;49.186;9.222;2023-08-12T03:59:43;9.40;;;5.93;;
75169;SDS011;63749;49.186;9.222;2023-08-12T04:02:08;10.10;;;6.30;;
75169;SDS011;63749;49.186;9.222;2023-08-12T04:04:34;11.50;;;5.80;;
75169;SDS011;63749;49.186;9.222;2023-08-12T04:06:59;8.53;;;6.00;;
75169;SDS011;63749;49.186;9.222;2023-08-12T04:09:25;12.85;;;6.03;;
75169;SDS011;63749;49.186;9.222;2023-08-12T04:11:50;11.53;;;6.10;;
75169;SDS011;63749;49.186;9.222;2023-08-12T04:14:16;11.20;;;5.97;;
75169;SDS011;63749;49.186;9.222;2023-08-12T04:16:41;11.73;;;6.33;;
75169;SDS011;63749;49.186;9.222;2023-08-12T04:19:06;12.90;;;5.90;;
75169;SDS011;63749;49.186;9.222;2023-08-12T04:21:32;12.00;;;5.93;;
75169;SDS011;63749;49.186;9.222;2023-08-12T04:23:57;8.57;;;6.00;;
75169;SDS011;63749;49.186;9.222;2023-08-12T04:26:22;13.80;;;6.30;;
75169;SDS011;63749;49.186;9.222;2023-08-12T04:28:48;10.38;;;6.05;;
75169;SDS011;63749;49.186;9.222;2023-08-12T04:31:13;9.47;;;6.27;;
75169;SDS011;63749;49.186;9.222;2023-08-12T04:33:39;12.10;;;5.87;;
75169;SDS011;63749;49.186;9.222;2023-08-12T04:36:04;13.40;;;5.80;;
75169;SDS011;63749;49.186;9.222;2023-08-12T04:38:30;14.05;;;6.35;;
75169;SDS011;63749;49.186;9.222;2023-08-12T04:40:56;11.37;;;6.30;;
75169;SDS011;63749;49.186;9.222;2023-08-12T04:43:21;10.77;;;6.30;;
75169;SDS011;63749;49.186;9.222;2023-08-12T04:45:47;13.37;;;6.10;;
75169;SDS011;63749;49.186;9.222;2023-08-12T04:48:13;14.45;;;6.78;;
75169;SDS011;63749;49.186;9.222;2023-08-12T04:50:38;9.43;;;6.10;;
75169;SDS011;63749;49.186;9.222;2023-08-12T04:53:04;12.27;;;6.30;;
75169;SDS011;63749;49.186;9.222;2023-08-12T04:55:30;9.90;;;6.38;;
75169;SDS011;63749;49.186;9.222;2023-08-12T04:57:56;9.93;;;5.90;;
75169;SDS011;63749;49.186;9.222;2023-08-12T05:00:22;13.57;;;6.00;;
75169;SDS011;63749;49.186;9.222;2023-08-12T05:02:48;10.68;;;6.10;;
75169;SDS011;63749;49.186;9.222;2023-08-12T05:05:14;10.68;;;6.60;;
75169;SDS011;63749;49.186;9.222;2023-08-12T05:07:39;10.30;;;6.40;;
75169;SDS011;63749;49.186;9.222;2023-08-12T05:10:05;8.73;;;6.23;;
75169;SDS011;63749;49.186;9.222;2023-08-12T05:12:30;11.77;;;6.15;;
75169;SDS011;63749;49.186;9.222;2023-08-12T05:14:56;9.27;;;6.20;;
75169;SDS011;63749;49.186;9.222;2023-08-12T05:17:21;9.90;;;6.27;;
75169;SDS011;63749;49.186;9.222;2023-08-12T05:19:46;10.10;;;5.63;;
75169;SDS011;63749;49.186;9.222;2023-08-12T05:22:12;9.18;;;5.82;;
75169;SDS011;63749;49.186;9.222;2023-08-12T05:24:37;9.23;;;5.93;;
75169;SDS011;63749;49.186;9.222;2023-08-12T05:27:03;8.60;;;5.83;;
75169;SDS011;63749;49.186;9.222;2023-08-12T05:29:29;9.35;;;5.97;;
75169;SDS011;63749;49.186;9.222;2023-08-12T05:31:55;10.50;;;5.68;;
75169;SDS011;63749;49.186;9.222;2023-08-12T05:34:21;9.07;;;5.57;;
75169;SDS011;63749;49.186;9.222;2023-08-12T05:36:46;10.83;;;5.43;;
75169;SDS011;63749;49.186;9.222;2023-08-12T05:39:11;11.00;;;5.80;;
75169;SDS011;63749;49.186;9.222;2023-08-12T05:41:37;9.25;;;5.88;;
75169;SDS011;63749;49.186;9.222;2023-08-12T05:44:02;15.47;;;6.20;;
75169;SDS011;63749;49.186;9.222;2023-08-12T05:46:28;12.40;;;6.10;;
75169;SDS011;63749;49.186;9.222;2023-08-12T05:48:53;11.23;;;6.40;;
75169;SDS011;63749;49.186;9.222;2023-08-12T05:51:19;10.80;;;6.03;;
75169;SDS011;63749;49.186;9.222;2023-08-12T05:53:44;8.93;;;6.23;;
75169;SDS011;63749;49.186;9.222;2023-08-12T05:56:09;14.03;;;6.90;;
75169;SDS011;63749;49.186;9.222;2023-08-12T05:58:35;9.20;;;6.40;;
75169;SDS011;63749;49.186;9.222;2023-08-12T06:01:00;10.13;;;6.00;;
75169;SDS011;63749;49.186;9.222;2023-08-12T06:03:25;12.40;;;6.27;;
75169;SDS011;63749;49.186;9.222;2023-08-12T06:05:51;12.77;;;6.23;;
75169;SDS011;63749;49.186;9.222;2023-08-12T06:08:16;12.90;;;6.20;;
75169;SDS011;63749;49.186;9.222;2023-08-12T06:10:42;8.90;;;6.40;;
75169;SDS011;63749;49.186;9.222;2023-08-12T06:13:08;11.30;;;6.10;;
75169;SDS011;63749;49.186;9.222;2023-08-12T06:15:33;9.75;;;6.03;;
75169;SDS011;63749;49.186;9.222;2023-08-12T06:17:59;9.90;;;6.20;;
75169;SDS011;63749;49.186;9.222;2023-08-12T06:20:25;10.93;;;5.85;;
75169;SDS011;63749;49.186;9.222;2023-08-12T06:22:51;10.57;;;6.30;;
75169;SDS011;63749;49.186;9.222;2023-08-12T06:25:17;9.35;;;6.32;;
75169;SDS011;63749;49.186;9.222;2023-08-12T06:27:43;9.43;;;6.28;;
75169;SDS011;63749;49.186;9.222;2023-08-12T06:30:09;11.18;;;6.97;;
75169;SDS011;63749;49.186;9.222;2023-08-12T06:32:35;9.63;;;6.80;;
75169;SDS011;63749;49.186;9.222;2023-08-12T06:35:00;9.73;;;6.68;;
75169;SDS011;63749;49.186;9.222;2023-08-12T06:37:26;11.17;;;6.93;;
75169;SDS011;63749;49.186;9.222;2023-08-12T06:39:51;13.47;;;6.60;;
75169;SDS011;63749;49.186;9.222;2023-08-12T06:42:16;8.90;;;6.20;;
75169;SDS011;63749;49.186;9.222;2023-08-12T06:44:42;11.00;;;6.60;;
75169;SDS011;63749;49.186;9.222;2023-08-12T06:47:07;10.23;;;6.70;;
75169;SDS011;63749;49.186;9.222;2023-08-12T06:49:32;11.10;;;6.10;;
75169;SDS011;63749;49.186;9.222;2023-08-12T06:51:58;12.00;;;6.30;;
75169;SDS011;63749;49.186;9.222;2023-08-12T06:54:23;11.33;;;6.30;;
75169;SDS011;63749;49.186;9.222;2023-08-12T06:56:49;12.48;;;6.50;;
75169;SDS011;63749;49.186;9.222;2023-08-12T06:59:15;13.40;;;6.63;;
75169;SDS011;63749;49.186;9.222;2023-08-12T07:01:40;11.05;;;6.97;;
75169;SDS011;63749;49.186;9.222;2023-08-12T07:04:06;8.33;;;6.90;;
75169;SDS011;63749;49.186;9.222;2023-08-12T07:06:31;10.87;;;7.30;;
75169;SDS011;63749;49.186;9.222;2023-08-12T07:08:56;16.03;;;7.93;;
75169;SDS011;63749;49.186;9.222;2023-08-12T07:11:22;21.83;;;8.27;;
75169;SDS011;63749;49.186;9.222;2023-08-12T07:13:47;11.13;;;7.20;;
75169;SDS011;63749;49.186;9.222;2023-08-12T07:16:13;10.67;;;7.40;;
75169;SDS011;63749;49.186;9.222;2023-08-12T07:18:38;9.93;;;7.27;;
75169;SDS011;63749;49.186;9.222;2023-08-12T07:21:03;10.97;;;7.50;;
75169;SDS011;63749;49.186;9.222;2023-08-12T07:23:29;9.02;;;6.93;;
75169;SDS011;63749;49.186;9.222;2023-08-12T07:25:54;11.90;;;7.00;;
75169;SDS011;63749;49.186;9.222;2023-08-12T07:28:20;8.50;;;6.47;;
75169;SDS011;63749;49.186;9.222;2023-08-12T07:30:45;12.30;;;6.40;;
75169;SDS011;63749;49.186;9.222;2023-08-12T07:33:10;11.50;;;6.72;;
75169;SDS011;63749;49.186;9.222;2023-08-12T07:35:36;11.00;;;6.93;;
75169;SDS011;63749;49.186;9.222;2023-08-12T07:38:01;11.07;;;6.50;;
75169;SDS011;63749;49.186;9.222;2023-08-12T07:40:26;11.37;;;7.00;;
75169;SDS011;63749;49.186;9.222;2023-08-12T07:42:52;13.03;;;7.40;;
75169;SDS011;63749;49.186;9.222;2023-08-12T07:45:17;9.98;;;6.50;;
75169;SDS011;63749;49.186;9.222;2023-08-12T07:47:43;9.80;;;6.80;;
75169;SDS011;63749;49.186;9.222;2023-08-12T07:50:08;11.87;;;6.80;;
75169;SDS011;63749;49.186;9.222;2023-08-12T07:52:34;9.25;;;6.88;;
75169;SDS011;63749;49.186;9.222;2023-08-12T07:55:00;11.73;;;7.10;;
75169;SDS011;63749;49.186;9.222;2023-08-12T07:57:26;9.90;;;6.67;;
75169;SDS011;63749;49.186;9.222;2023-08-12T07:59:51;10.50;;;6.80;;
75169;SDS011;63749;49.186;9.222;2023-08-12T08:02:16;11.68;;;6.47;;
75169;SDS011;63749;49.186;9.222;2023-08-12T08:04:42;11.67;;;6.63;;
75169;SDS011;63749;49.186;9.222;2023-08-12T08:07:07;12.37;;;6.90;;
75169;SDS011;63749;49.186;9.222;2023-08-12T08:09:33;13.75;;;6.80;;
75169;SDS011;63749;49.186;9.222;2023-08-12T08:11:59;12.68;;;6.72;;
75169;SDS011;63749;49.186;9.222;2023-08-12T08:14:25;9.60;;;6.90;;
75169;SDS011;63749;49.186;9.222;2023-08-12T08:16:51;8.38;;;6.07;;
75169;SDS011;63749;49.186;9.222;2023-08-12T08:19:17;9.13;;;6.07;;
75169;SDS011;63749;49.186;9.222;2023-08-12T08:21:43;9.15;;;6.60;;
75169;SDS011;63749;49.186;9.222;2023-08-12T08:24:08;12.07;;;6.07;;
75169;SDS011;63749;49.186;9.222;2023-08-12T08:26:36;11.70;;;6.10;;
75169;SDS011;63749;49.186;9.222;2023-08-12T08:29:01;11.20;;;6.23;;
75169;SDS011;63749;49.186;9.222;2023-08-12T08:31:27;8.77;;;6.57;;
75169;SDS011;63749;49.186;9.222;2023-08-12T08:33:52;9.17;;;6.37;;
75169;SDS011;63749;49.186;9.222;2023-08-12T08:36:17;12.37;;;6.90;;
75169;SDS011;63749;49.186;9.222;2023-08-12T08:38:43;11.48;;;6.65;;
75169;SDS011;63749;49.186;9.222;2023-08-12T08:41:08;11.63;;;6.93;;
75169;SDS011;63749;49.186;9.222;2023-08-12T08:43:35;11.00;;;6.38;;
75169;SDS011;63749;49.186;9.222;2023-08-12T08:46:02;11.07;;;6.63;;
75169;SDS011;63749;49.186;9.222;2023-08-12T08:48:27;9.13;;;6.67;;
75169;SDS011;63749;49.186;9.222;2023-08-12T08:50:53;10.23;;;6.67;;
75169;SDS011;63749;49.186;9.222;2023-08-12T08:53:19;9.32;;;6.32;;
75169;SDS011;63749;49.186;9.222;2023-08-12T08:55:46;12.77;;;6.80;;
75169;SDS011;63749;49.186;9.222;2023-08-12T08:58:12;11.18;;;6.57;;
75169;SDS011;63749;49.186;9.222;2023-08-12T09:00:38;9.43;;;6.53;;
75169;SDS011;63749;49.186;9.222;2023-08-12T09:03:04;8.20;;;6.35;;
75169;SDS011;63749;49.186;9.222;2023-08-12T09:05:31;11.15;;;6.78;;
75169;SDS011;63749;49.186;9.222;2023-08-12T09:07:58;10.10;;;6.77;;
75169;SDS011;63749;49.186;9.222;2023-08-12T09:10:26;7.90;;;6.40;;
75169;SDS011;63749;49.186;9.222;2023-08-12T09:12:52;8.43;;;6.55;;
75169;SDS011;63749;49.186;9.222;2023-08-12T09:15:19;8.65;;;6.65;;
75169;SDS011;63749;49.186;9.222;2023-08-12T09:17:45;7.53;;;6.10;;
75169;SDS011;63749;49.186;9.222;2023-08-12T09:20:10;8.70;;;6.40;;
75169;SDS011;63749;49.186;9.222;2023-08-12T09:22:42;11.38;;;6.80;;
75169;SDS011;63749;49.186;9.222;2023-08-12T09:25:08;10.73;;;6.70;;
75169;SDS011;63749;49.186;9.222;2023-08-12T09:27:35;12.50;;;6.63;;
75169;SDS011;63749;49.186;9.222;2023-08-12T09:30:03;9.75;;;6.82;;
75169;SDS011;63749;49.186;9.222;2023-08-12T09:32:28;10.32;;;6.70;;
75169;SDS011;63749;49.186;9.222;2023-08-12T09:34:54;9.23;;;6.60;;
75169;SDS011;63749;49.186;9.222;2023-08-12T09:37:21;10.48;;;6.55;;
75169;SDS011;63749;49.186;9.222;2023-08-12T09:39:48;8.60;;;6.40;;
75169;SDS011;63749;49.186;9.222;2023-08-12T09:42:15;7.75;;;6.47;;
75169;SDS011;63749;49.186;9.222;2023-08-12T09:44:41;8.32;;;6.30;;
75169;SDS011;63749;49.186;9.222;2023-08-12T09:47:06;8.17;;;6.50;;
75169;SDS011;63749;49.186;9.222;2023-08-12T09:49:33;9.60;;;6.75;;
75169;SDS011;63749;49.186;9.222;2023-08-12T09:52:00;10.68;;;6.88;;
75169;SDS011;63749;49.186;9.222;2023-08-12T09:54:27;8.93;;;6.80;;
75169;SDS011;63749;49.186;9.222;2023-08-12T09:56:54;10.60;;;7.15;;
75169;SDS011;63749;49.186;9.222;2023-08-12T09:59:23;10.80;;;6.85;;
75169;SDS011;63749;49.186;9.222;2023-08-12T10:01:52;9.95;;;7.15;;
75169;SDS011;63749;49.186;9.222;2023-08-12T10:04:18;12.63;;;6.77;;
75169;SDS011;63749;49.186;9.222;2023-08-12T10:06:47;7.60;;;6.57;;
75169;SDS011;63749;49.186;9.222;2023-08-12T10:09:14;7.68;;;6.07;;
75169;SDS011;63749;49.186;9.222;2023-08-12T10:11:41;11.70;;;6.72;;
75169;SDS011;63749;49.186;9.222;2023-08-12T10:14:08;8.30;;;6.28;;
75169;SDS011;63749;49.186;9.222;2023-08-12T10:16:34;8.37;;;6.00;;
75169;SDS011;63749;49.186;9.222;2023-08-12T10:19:01;6.95;;;5.57;;
75169;SDS011;63749;49.186;9.222;2023-08-12T10:21:29;8.40;;;6.10;;
75169;SDS011;63749;49.186;9.222;2023-08-12T10:23:54;8.77;;;6.37;;
75169;SDS011;63749;49.186;9.222;2023-08-12T10:26:22;9.10;;;5.80;;
75169;SDS011;63749;49.186;9.222;2023-08-12T10:28:49;7.03;;;5.72;;
75169;SDS011;63749;49.186;9.222;2023-08-12T10:31:15;9.10;;;5.93;;
75169;SDS011;63749;49.186;9.222;2023-08-12T10:33:41;9.75;;;5.80;;
75169;SDS011;63749;49.186;9.222;2023-08-12T10:36:07;9.35;;;6.50;;
75169;SDS011;63749;49.186;9.222;2023-08-12T10:38:33;8.77;;;6.50;;
75169;SDS011;63749;49.186;9.222;2023-08-12T11:02:18;8.30;;;5.60;;
75169;SDS011;63749;49.186;9.222;2023-08-12T11:04:56;7.15;;;5.10;;
75169;SDS011;63749;49.186;9.222;2023-08-12T11:07:33;7.15;;;5.18;;
75169;SDS011;63749;49.186;9.222;2023-08-12T11:12:33;6.32;;;4.90;;
75169;SDS011;63749;49.186;9.222;2023-08-12T11:14:59;8.67;;;5.40;;
75169;SDS011;63749;49.186;9.222;2023-08-12T11:17:33;6.63;;;5.00;;
75169;SDS011;63749;49.186;9.222;2023-08-12T11:20:00;6.50;;;5.00;;
75169;SDS011;63749;49.186;9.222;2023-08-12T11:22:29;7.07;;;5.10;;
75169;SDS011;63749;49.186;9.222;2023-08-12T11:24:55;7.15;;;5.20;;
75169;SDS011;63749;49.186;9.222;2023-08-12T11:27:21;9.10;;;5.30;;
75169;SDS011;63749;49.186;9.222;2023-08-12T11:29:48;8.48;;;5.22;;
75169;SDS011;63749;49.186;9.222;2023-08-12T11:32:15;8.30;;;5.40;;
75169;SDS011;63749;49.186;9.222;2023-08-12T11:34:41;10.77;;;5.47;;
75169;SDS011;63749;49.186;9.222;2023-08-12T11:37:06;7.30;;;4.97;;
75169;SDS011;63749;49.186;9.222;2023-08-12T11:39:32;6.65;;;5.35;;
75169;SDS011;63749;49.186;9.222;2023-08-12T11:41:57;8.83;;;5.50;;
75169;SDS011;63749;49.186;9.222;2023-08-12T11:44:23;6.93;;;5.50;;
75169;SDS011;63749;49.186;9.222;2023-08-12T11:46:49;6.93;;;5.57;;
75169;SDS011;63749;49.186;9.222;2023-08-12T11:49:15;8.45;;;5.50;;
75169;SDS011;63749;49.186;9.222;2023-08-12T11:51:40;6.33;;;4.90;;
75169;SDS011;63749;49.186;9.222;2023-08-12T11:54:08;5.50;;;4.80;;
75169;SDS011;63749;49.186;9.222;2023-08-12T11:56:34;6.40;;;4.40;;
75169;SDS011;63749;49.186;9.222;2023-08-12T11:58:59;6.90;;;4.55;;
75169;SDS011;63749;49.186;9.222;2023-08-12T12:01:25;7.27;;;4.60;;
75169;SDS011;63749;49.186;9.222;2023-08-12T12:03:53;7.97;;;4.43;;
75169;SDS011;63749;49.186;9.222;2023-08-12T12:06:27;4.70;;;4.03;;
75169;SDS011;63749;49.186;9.222;2023-08-12T12:08:54;6.57;;;4.55;;
75169;SDS011;63749;49.186;9.222;2023-08-12T12:11:20;6.63;;;4.30;;
75169;SDS011;63749;49.186;9.222;2023-08-12T12:13:45;7.93;;;4.67;;
75169;SDS011;63749;49.186;9.222;2023-08-12T12:16:12;8.05;;;4.93;;
75169;SDS011;63749;49.186;9.222;2023-08-12T12:18:38;6.57;;;4.80;;
75169;SDS011;63749;49.186;9.222;2023-08-12T12:21:03;9.03;;;4.77;;
75169;SDS011;63749;49.186;9.222;2023-08-12T12:23:29;7.90;;;4.95;;
75169;SDS011;63749;49.186;9.222;2023-08-12T12:25:56;9.70;;;5.70;;
75169;SDS011;63749;49.186;9.222;2023-08-12T12:28:28;7.10;;;5.90;;
75169;SDS011;63749;49.186;9.222;2023-08-12T12:30:54;10.48;;;6.43;;
75169;SDS011;63749;49.186;9.222;2023-08-12T12:33:20;10.10;;;5.83;;
75169;SDS011;63749;49.186;9.222;2023-08-12T12:35:45;10.13;;;6.10;;
75169;SDS011;63749;49.186;9.222;2023-08-12T12:38:10;9.33;;;6.23;;
75169;SDS011;63749;49.186;9.222;2023-08-12T12:40:36;9.07;;;6.20;;
75169;SDS011;63749;49.186;9.222;2023-08-12T12:43:03;10.70;;;6.47;;
75169;SDS011;63749;49.186;9.222;2023-08-12T12:45:28;8.80;;;5.97;;
75169;SDS011;63749;49.186;9.222;2023-08-12T12:47:54;10.98;;;6.10;;
75169;SDS011;63749;49.186;9.222;2023-08-12T12:50:19;8.43;;;6.10;;
75169;SDS011;63749;49.186;9.222;2023-08-12T12:52:44;10.57;;;6.50;;
75169;SDS011;63749;49.186;9.222;2023-08-12T12:55:10;10.77;;;6.50;;
75169;SDS011;63749;49.186;9.222;2023-08-12T12:57:35;7.90;;;6.40;;
75169;SDS011;63749;49.186;9.222;2023-08-12T13:00:00;8.43;;;6.60;;
75169;SDS011;63749;49.186;9.222;2023-08-12T13:02:26;9.67;;;6.60;;
75169;SDS011;63749;49.186;9.222;2023-08-12T13:04:52;8.23;;;6.50;;
75169;SDS011;63749;49.186;9.222;2023-08-12T13:07:17;9.03;;;6.30;;
75169;SDS011;63749;49.186;9.222;2023-08-12T13:09:43;8.95;;;6.50;;
75169;SDS011;63749;49.186;9.222;2023-08-12T13:12:08;10.73;;;7.00;;
75169;SDS011;63749;49.186;9.222;2023-08-12T13:14:33;7.20;;;6.40;;
75169;SDS011;63749;49.186;9.222;2023-08-12T13:16:59;6.93;;;6.00;;
75169;SDS011;63749;49.186;9.222;2023-08-12T13:19:24;8.47;;;6.47;;
75169;SDS011;63749;49.186;9.222;2023-08-12T13:21:50;8.57;;;6.20;;
75169;SDS011;63749;49.186;9.222;2023-08-12T13:24:15;9.40;;;6.30;;
75169;SDS011;63749;49.186;9.222;2023-08-12T13:26:40;9.97;;;5.80;;
75169;SDS011;63749;49.186;9.222;2023-08-12T13:29:06;7.38;;;5.90;;
75169;SDS011;63749;49.186;9.222;2023-08-12T13:31:31;10.90;;;6.13;;
75169;SDS011;63749;49.186;9.222;2023-08-12T13:33:57;6.80;;;6.07;;
75169;SDS011;63749;49.186;9.222;2023-08-12T13:36:22;7.03;;;5.80;;
75169;SDS011;63749;49.186;9.222;2023-08-12T13:38:48;8.10;;;5.93;;
75169;SDS011;63749;49.186;9.222;2023-08-12T13:41:13;8.13;;;6.00;;
75169;SDS011;63749;49.186;9.222;2023-08-12T13:43:38;10.47;;;6.60;;
75169;SDS011;63749;49.186;9.222;2023-08-12T13:46:04;8.07;;;5.80;;
75169;SDS011;63749;49.186;9.222;2023-08-12T13:48:29;8.60;;;6.20;;
75169;SDS011;63749;49.186;9.222;2023-08-12T13:50:55;9.20;;;6.30;;
75169;SDS011;63749;49.186;9.222;2023-08-12T13:53:21;7.80;;;6.27;;
75169;SDS011;63749;49.186;9.222;2023-08-12T13:55:46;8.82;;;5.90;;
75169;SDS011;63749;49.186;9.222;2023-08-12T13:58:11;8.10;;;6.23;;
75169;SDS011;63749;49.186;9.222;2023-08-12T14:00:36;10.67;;;6.73;;
75169;SDS011;63749;49.186;9.222;2023-08-12T14:03:02;8.10;;;6.30;;
75169;SDS011;63749;49.186;9.222;2023-08-12T14:05:27;7.83;;;6.90;;
75169;SDS011;63749;49.186;9.222;2023-08-12T14:07:53;7.18;;;5.93;;
75169;SDS011;63749;49.186;9.222;2023-08-12T14:10:18;10.57;;;6.83;;
75169;SDS011;63749;49.186;9.222;2023-08-12T14:12:44;6.18;;;5.10;;
75169;SDS011;63749;49.186;9.222;2023-08-12T14:15:14;7.13;;;5.57;;
75169;SDS011;63749;49.186;9.222;2023-08-12T14:17:39;6.77;;;6.07;;
75169;SDS011;63749;49.186;9.222;2023-08-12T14:20:05;8.03;;;6.43;;
75169;SDS011;63749;49.186;9.222;2023-08-12T14:22:33;7.78;;;6.50;;
75169;SDS011;63749;49.186;9.222;2023-08-12T14:24:59;8.18;;;6.20;;
75169;SDS011;63749;49.186;9.222;2023-08-12T14:27:25;6.67;;;5.93;;
75169;SDS011;63749;49.186;9.222;2023-08-12T14:29:50;8.27;;;6.30;;
75169;SDS011;63749;49.186;9.222;2023-08-12T14:32:15;7.77;;;6.23;;
75169;SDS011;63749;49.186;9.222;2023-08-12T14:34:43;9.05;;;6.47;;
75169;SDS011;63749;49.186;9.222;2023-08-12T14:37:11;6.60;;;6.00;;
75169;SDS011;63749;49.186;9.222;2023-08-12T14:39:36;6.57;;;5.10;;
75169;SDS011;63749;49.186;9.222;2023-08-12T14:42:02;8.77;;;6.10;;
75169;SDS011;63749;49.186;9.222;2023-08-12T14:44:29;6.80;;;5.75;;
75169;SDS011;63749;49.186;9.222;2023-08-12T14:46:55;8.60;;;6.50;;
75169;SDS011;63749;49.186;9.222;2023-08-12T14:49:21;7.53;;;5.20;;
75169;SDS011;63749;49.186;9.222;2023-08-12T14:51:46;7.57;;;5.77;;
75169;SDS011;63749;49.186;9.222;2023-08-12T14:54:11;6.45;;;5.00;;
75169;SDS011;63749;49.186;9.222;2023-08-12T14:56:37;5.63;;;4.77;;
75169;SDS011;63749;49.186;9.222;2023-08-12T14:59:02;7.43;;;4.80;;